sensor_id;sensor_type;location;lat;lon;timestamp;P1;durP1;ratioP1;P2;durP2;ratioP2
27558;SDS011;15002;52.028;5.670;2023-03-01T00:01:24;6.25;;;4.35;;
27558;SDS011;15002;52.028;5.670;2023-03-01T00:03:51;5.30;;;4.22;;
27558;SDS011;15002;52.028;5.670;2023-03-01T00:06:18;8.77;;;4.57;;
27558;SDS011;15002;52.028;5.670;2023-03-01T00:08:45;8.10;;;4.00;;
27558;SDS011;15002;52.028;5.670;2023-03-01T00:11:18;7.68;;;4.68;;
27558;SDS011;15002;52.028;5.670;2023-03-01T00:16:25;6.50;;;4.03;;
27558;SDS011;15002;52.028;5.670;2023-03-01T00:18:55;7.13;;;4.57;;
27558;SDS011;15002;52.028;5.670;2023-03-01T00:21:22;4.68;;;3.80;;
27558;SDS011;15002;52.028;5.670;2023-03-01T00:23:48;7.05;;;4.63;;
27558;SDS011;15002;52.028;5.670;2023-03-01T00:26:15;8.27;;;4.15;;
27558;SDS011;15002;52.028;5.670;2023-03-01T00:28:42;6.45;;;4.82;;
27558;SDS011;15002;52.028;5.670;2023-03-01T00:31:13;7.68;;;4.85;;
27558;SDS011;15002;52.028;5.670;2023-03-01T00:33:40;9.68;;;4.50;;
27558;SDS011;15002;52.028;5.670;2023-03-01T00:36:06;5.85;;;4.15;;
27558;SDS011;15002;52.028;5.670;2023-03-01T00:38:39;7.93;;;4.70;;
27558;SDS011;15002;52.028;5.670;2023-03-01T00:41:07;6.10;;;4.40;;
27558;SDS011;15002;52.028;5.670;2023-03-01T00:43:34;4.40;;;3.58;;
27558;SDS011;15002;52.028;5.670;2023-03-01T00:46:09;7.70;;;4.10;;
27558;SDS011;15002;52.028;5.670;2023-03-01T00:48:36;6.32;;;4.40;;
27558;SDS011;15002;52.028;5.670;2023-03-01T00:51:09;8.07;;;4.28;;
27558;SDS011;15002;52.028;5.670;2023-03-01T00:53:35;5.65;;;3.90;;
27558;SDS011;15002;52.028;5.670;2023-03-01T00:56:01;8.30;;;4.65;;
27558;SDS011;15002;52.028;5.670;2023-03-01T00:58:28;6.28;;;4.25;;
27558;SDS011;15002;52.028;5.670;2023-03-01T01:00:54;9.05;;;4.35;;
27558;SDS011;15002;52.028;5.670;2023-03-01T01:03:19;7.97;;;4.45;;
27558;SDS011;15002;52.028;5.670;2023-03-01T01:05:45;7.70;;;3.67;;
27558;SDS011;15002;52.028;5.670;2023-03-01T01:08:11;6.38;;;3.78;;
27558;SDS011;15002;52.028;5.670;2023-03-01T01:10:37;7.50;;;4.20;;
27558;SDS011;15002;52.028;5.670;2023-03-01T01:13:02;9.40;;;4.20;;
27558;SDS011;15002;52.028;5.670;2023-03-01T01:15:29;7.72;;;3.70;;
27558;SDS011;15002;52.028;5.670;2023-03-01T01:17:58;8.30;;;4.18;;
27558;SDS011;15002;52.028;5.670;2023-03-01T01:20:23;10.23;;;4.18;;
27558;SDS011;15002;52.028;5.670;2023-03-01T01:22:49;6.45;;;3.97;;
27558;SDS011;15002;52.028;5.670;2023-03-01T01:25:16;6.70;;;4.07;;
27558;SDS011;15002;52.028;5.670;2023-03-01T01:27:41;7.30;;;3.90;;
27558;SDS011;15002;52.028;5.670;2023-03-01T01:30:07;7.07;;;4.03;;
27558;SDS011;15002;52.028;5.670;2023-03-01T01:32:33;7.50;;;3.80;;
27558;SDS011;15002;52.028;5.670;2023-03-01T01:34:59;6.18;;;4.15;;
27558;SDS011;15002;52.028;5.670;2023-03-01T01:37:24;4.75;;;3.05;;
27558;SDS011;15002;52.028;5.670;2023-03-01T01:39:56;7.47;;;3.92;;
27558;SDS011;15002;52.028;5.670;2023-03-01T01:42:26;7.05;;;4.22;;
27558;SDS011;15002;52.028;5.670;2023-03-01T01:47:56;5.93;;;3.60;;
27558;SDS011;15002;52.028;5.670;2023-03-01T01:50:25;5.80;;;3.85;;
27558;SDS011;15002;52.028;5.670;2023-03-01T01:52:51;5.32;;;3.53;;
27558;SDS011;15002;52.028;5.670;2023-03-01T01:55:21;5.47;;;3.60;;
27558;SDS011;15002;52.028;5.670;2023-03-01T01:57:53;6.80;;;4.20;;
27558;SDS011;15002;52.028;5.670;2023-03-01T02:00:22;8.05;;;4.45;;
27558;SDS011;15002;52.028;5.670;2023-03-01T02:02:51;6.10;;;4.18;;
27558;SDS011;15002;52.028;5.670;2023-03-01T02:05:35;8.13;;;4.90;;
27558;SDS011;15002;52.028;5.670;2023-03-01T02:08:21;9.75;;;4.10;;
27558;SDS011;15002;52.028;5.670;2023-03-01T02:10:51;7.47;;;4.40;;
27558;SDS011;15002;52.028;5.670;2023-03-01T02:13:19;6.13;;;4.47;;
27558;SDS011;15002;52.028;5.670;2023-03-01T02:15:45;6.38;;;3.92;;
27558;SDS011;15002;52.028;5.670;2023-03-01T02:18:12;7.25;;;4.22;;
27558;SDS011;15002;52.028;5.670;2023-03-01T02:23:30;7.35;;;4.47;;
27558;SDS011;15002;52.028;5.670;2023-03-01T02:28:26;6.72;;;4.28;;
27558;SDS011;15002;52.028;5.670;2023-03-01T02:30:54;5.22;;;4.00;;
27558;SDS011;15002;52.028;5.670;2023-03-01T02:33:39;6.00;;;3.90;;
27558;SDS011;15002;52.028;5.670;2023-03-01T02:36:14;5.10;;;3.75;;
27558;SDS011;15002;52.028;5.670;2023-03-01T02:38:42;5.43;;;3.63;;
27558;SDS011;15002;52.028;5.670;2023-03-01T02:41:09;6.97;;;3.85;;
27558;SDS011;15002;52.028;5.670;2023-03-01T02:43:38;6.75;;;3.70;;
27558;SDS011;15002;52.028;5.670;2023-03-01T02:46:07;7.95;;;3.90;;
27558;SDS011;15002;52.028;5.670;2023-03-01T02:57:00;6.82;;;3.85;;
27558;SDS011;15002;52.028;5.670;2023-03-01T02:59:28;7.30;;;3.30;;
27558;SDS011;15002;52.028;5.670;2023-03-01T03:01:56;5.68;;;4.00;;
27558;SDS011;15002;52.028;5.670;2023-03-01T03:04:22;4.75;;;3.60;;
27558;SDS011;15002;52.028;5.670;2023-03-01T03:06:48;7.10;;;3.88;;
27558;SDS011;15002;52.028;5.670;2023-03-01T03:09:15;6.50;;;3.70;;
27558;SDS011;15002;52.028;5.670;2023-03-01T03:11:42;6.57;;;3.70;;
27558;SDS011;15002;52.028;5.670;2023-03-01T03:14:09;8.60;;;3.97;;
27558;SDS011;15002;52.028;5.670;2023-03-01T03:16:41;6.68;;;3.97;;
27558;SDS011;15002;52.028;5.670;2023-03-01T03:19:07;6.18;;;3.72;;
27558;SDS011;15002;52.028;5.670;2023-03-01T03:21:33;5.93;;;3.78;;
27558;SDS011;15002;52.028;5.670;2023-03-01T03:23:59;4.85;;;3.60;;
27558;SDS011;15002;52.028;5.670;2023-03-01T03:26:25;6.88;;;3.92;;
27558;SDS011;15002;52.028;5.670;2023-03-01T03:28:51;5.72;;;3.78;;
27558;SDS011;15002;52.028;5.670;2023-03-01T03:31:16;8.00;;;4.07;;
27558;SDS011;15002;52.028;5.670;2023-03-01T03:33:42;5.22;;;3.92;;
27558;SDS011;15002;52.028;5.670;2023-03-01T03:36:08;5.47;;;3.80;;
27558;SDS011;15002;52.028;5.670;2023-03-01T03:38:38;6.30;;;4.28;;
27558;SDS011;15002;52.028;5.670;2023-03-01T03:41:06;5.93;;;4.07;;
27558;SDS011;15002;52.028;5.670;2023-03-01T03:43:33;5.82;;;3.90;;
27558;SDS011;15002;52.028;5.670;2023-03-01T03:46:00;6.90;;;3.88;;
27558;SDS011;15002;52.028;5.670;2023-03-01T03:48:30;6.30;;;4.53;;
27558;SDS011;15002;52.028;5.670;2023-03-01T03:50:58;6.93;;;4.30;;
27558;SDS011;15002;52.028;5.670;2023-03-01T03:53:25;7.90;;;3.80;;
27558;SDS011;15002;52.028;5.670;2023-03-01T03:55:52;7.43;;;4.25;;
27558;SDS011;15002;52.028;5.670;2023-03-01T03:58:19;7.85;;;4.25;;
27558;SDS011;15002;52.028;5.670;2023-03-01T04:00:47;6.55;;;4.38;;
27558;SDS011;15002;52.028;5.670;2023-03-01T04:03:15;5.82;;;4.57;;
27558;SDS011;15002;52.028;5.670;2023-03-01T04:05:41;8.90;;;4.53;;
27558;SDS011;15002;52.028;5.670;2023-03-01T04:08:07;8.10;;;4.55;;
27558;SDS011;15002;52.028;5.670;2023-03-01T04:10:37;7.95;;;4.18;;
27558;SDS011;15002;52.028;5.670;2023-03-01T04:13:12;7.40;;;4.28;;
27558;SDS011;15002;52.028;5.670;2023-03-01T04:15:44;7.43;;;4.07;;
27558;SDS011;15002;52.028;5.670;2023-03-01T04:18:12;4.50;;;3.63;;
27558;SDS011;15002;52.028;5.670;2023-03-01T04:20:39;7.20;;;4.18;;
27558;SDS011;15002;52.028;5.670;2023-03-01T04:23:09;8.07;;;4.53;;
27558;SDS011;15002;52.028;5.670;2023-03-01T04:25:42;7.40;;;4.60;;
27558;SDS011;15002;52.028;5.670;2023-03-01T04:28:11;7.93;;;4.40;;
27558;SDS011;15002;52.028;5.670;2023-03-01T04:30:37;7.22;;;3.85;;
27558;SDS011;15002;52.028;5.670;2023-03-01T04:33:04;8.00;;;4.70;;
27558;SDS011;15002;52.028;5.670;2023-03-01T04:35:31;7.85;;;4.15;;
27558;SDS011;15002;52.028;5.670;2023-03-01T04:37:58;6.38;;;4.25;;
27558;SDS011;15002;52.028;5.670;2023-03-01T04:40:23;9.10;;;4.72;;
27558;SDS011;15002;52.028;5.670;2023-03-01T04:42:50;5.75;;;4.13;;
27558;SDS011;15002;52.028;5.670;2023-03-01T04:45:15;6.10;;;4.45;;
27558;SDS011;15002;52.028;5.670;2023-03-01T04:47:41;8.15;;;4.40;;
27558;SDS011;15002;52.028;5.670;2023-03-01T04:50:10;8.30;;;4.18;;
27558;SDS011;15002;52.028;5.670;2023-03-01T04:52:38;7.80;;;4.25;;
27558;SDS011;15002;52.028;5.670;2023-03-01T04:55:03;8.27;;;4.00;;
27558;SDS011;15002;52.028;5.670;2023-03-01T04:57:30;6.03;;;4.72;;
27558;SDS011;15002;52.028;5.670;2023-03-01T04:59:56;8.57;;;4.63;;
27558;SDS011;15002;52.028;5.670;2023-03-01T05:02:21;8.20;;;4.88;;
27558;SDS011;15002;52.028;5.670;2023-03-01T05:04:47;12.55;;;4.85;;
27558;SDS011;15002;52.028;5.670;2023-03-01T05:07:13;6.10;;;4.55;;
27558;SDS011;15002;52.028;5.670;2023-03-01T05:09:47;7.25;;;4.20;;
27558;SDS011;15002;52.028;5.670;2023-03-01T05:12:14;10.82;;;4.47;;
27558;SDS011;15002;52.028;5.670;2023-03-01T05:14:40;6.80;;;4.50;;
27558;SDS011;15002;52.028;5.670;2023-03-01T05:17:06;8.70;;;4.07;;
27558;SDS011;15002;52.028;5.670;2023-03-01T05:19:33;6.50;;;4.45;;
27558;SDS011;15002;52.028;5.670;2023-03-01T05:21:58;7.95;;;4.30;;
27558;SDS011;15002;52.028;5.670;2023-03-01T05:24:29;6.57;;;3.97;;
27558;SDS011;15002;52.028;5.670;2023-03-01T05:26:56;8.63;;;4.50;;
27558;SDS011;15002;52.028;5.670;2023-03-01T05:29:22;7.15;;;4.22;;
27558;SDS011;15002;52.028;5.670;2023-03-01T05:31:52;6.75;;;4.20;;
27558;SDS011;15002;52.028;5.670;2023-03-01T05:34:26;6.20;;;4.50;;
27558;SDS011;15002;52.028;5.670;2023-03-01T05:36:53;7.35;;;4.50;;
27558;SDS011;15002;52.028;5.670;2023-03-01T05:39:20;7.15;;;4.72;;
27558;SDS011;15002;52.028;5.670;2023-03-01T05:41:47;7.28;;;4.47;;
27558;SDS011;15002;52.028;5.670;2023-03-01T05:44:16;7.07;;;5.07;;
27558;SDS011;15002;52.028;5.670;2023-03-01T05:46:42;7.78;;;4.80;;
27558;SDS011;15002;52.028;5.670;2023-03-01T05:49:07;13.65;;;4.88;;
27558;SDS011;15002;52.028;5.670;2023-03-01T05:51:33;6.50;;;4.70;;
27558;SDS011;15002;52.028;5.670;2023-03-01T05:53:59;9.98;;;4.82;;
27558;SDS011;15002;52.028;5.670;2023-03-01T05:56:24;7.38;;;4.65;;
27558;SDS011;15002;52.028;5.670;2023-03-01T05:58:50;12.77;;;4.90;;
27558;SDS011;15002;52.028;5.670;2023-03-01T06:01:16;12.40;;;5.13;;
27558;SDS011;15002;52.028;5.670;2023-03-01T06:03:41;7.28;;;4.90;;
27558;SDS011;15002;52.028;5.670;2023-03-01T06:06:07;7.68;;;4.97;;
27558;SDS011;15002;52.028;5.670;2023-03-01T06:08:33;12.63;;;5.85;;
27558;SDS011;15002;52.028;5.670;2023-03-01T06:10:58;7.13;;;4.38;;
27558;SDS011;15002;52.028;5.670;2023-03-01T06:13:24;7.00;;;4.68;;
27558;SDS011;15002;52.028;5.670;2023-03-01T06:15:50;6.60;;;4.53;;
27558;SDS011;15002;52.028;5.670;2023-03-01T06:18:16;7.65;;;4.93;;
27558;SDS011;15002;52.028;5.670;2023-03-01T06:20:41;8.88;;;5.03;;
27558;SDS011;15002;52.028;5.670;2023-03-01T06:23:07;8.00;;;5.28;;
27558;SDS011;15002;52.028;5.670;2023-03-01T06:25:32;7.97;;;4.93;;
27558;SDS011;15002;52.028;5.670;2023-03-01T06:27:58;8.15;;;5.25;;
27558;SDS011;15002;52.028;5.670;2023-03-01T06:30:24;7.45;;;5.10;;
27558;SDS011;15002;52.028;5.670;2023-03-01T06:32:51;8.15;;;5.10;;
27558;SDS011;15002;52.028;5.670;2023-03-01T06:35:17;8.43;;;5.30;;
27558;SDS011;15002;52.028;5.670;2023-03-01T06:37:44;12.90;;;5.30;;
27558;SDS011;15002;52.028;5.670;2023-03-01T06:40:11;9.85;;;4.70;;
27558;SDS011;15002;52.028;5.670;2023-03-01T06:42:39;9.98;;;5.05;;
27558;SDS011;15002;52.028;5.670;2023-03-01T06:45:06;9.57;;;4.80;;
27558;SDS011;15002;52.028;5.670;2023-03-01T06:47:33;6.10;;;4.20;;
27558;SDS011;15002;52.028;5.670;2023-03-01T06:49:59;9.35;;;5.25;;
27558;SDS011;15002;52.028;5.670;2023-03-01T06:52:25;10.50;;;5.35;;
27558;SDS011;15002;52.028;5.670;2023-03-01T06:54:51;6.60;;;4.85;;
27558;SDS011;15002;52.028;5.670;2023-03-01T06:57:17;8.95;;;4.93;;
27558;SDS011;15002;52.028;5.670;2023-03-01T06:59:43;10.13;;;5.53;;
27558;SDS011;15002;52.028;5.670;2023-03-01T07:02:09;11.43;;;6.03;;
27558;SDS011;15002;52.028;5.670;2023-03-01T07:04:36;8.65;;;5.30;;
27558;SDS011;15002;52.028;5.670;2023-03-01T07:07:02;8.77;;;5.28;;
27558;SDS011;15002;52.028;5.670;2023-03-01T07:09:28;6.55;;;4.90;;
27558;SDS011;15002;52.028;5.670;2023-03-01T07:11:54;8.65;;;5.20;;
27558;SDS011;15002;52.028;5.670;2023-03-01T07:14:19;6.28;;;4.38;;
27558;SDS011;15002;52.028;5.670;2023-03-01T07:16:45;9.35;;;5.07;;
27558;SDS011;15002;52.028;5.670;2023-03-01T07:19:11;9.70;;;5.38;;
27558;SDS011;15002;52.028;5.670;2023-03-01T07:21:37;7.25;;;4.82;;
27558;SDS011;15002;52.028;5.670;2023-03-01T07:24:05;8.10;;;5.03;;
27558;SDS011;15002;52.028;5.670;2023-03-01T07:26:31;9.75;;;4.75;;
27558;SDS011;15002;52.028;5.670;2023-03-01T07:28:58;8.63;;;4.80;;
27558;SDS011;15002;52.028;5.670;2023-03-01T07:31:25;7.70;;;4.72;;
27558;SDS011;15002;52.028;5.670;2023-03-01T07:33:52;8.50;;;4.55;;
27558;SDS011;15002;52.028;5.670;2023-03-01T07:36:19;5.50;;;4.07;;
27558;SDS011;15002;52.028;5.670;2023-03-01T07:38:44;7.07;;;4.65;;
27558;SDS011;15002;52.028;5.670;2023-03-01T07:41:10;9.48;;;4.43;;
27558;SDS011;15002;52.028;5.670;2023-03-01T07:43:36;9.77;;;5.60;;
27558;SDS011;15002;52.028;5.670;2023-03-01T07:46:02;8.32;;;4.70;;
27558;SDS011;15002;52.028;5.670;2023-03-01T07:48:29;8.82;;;5.28;;
27558;SDS011;15002;52.028;5.670;2023-03-01T07:50:58;8.93;;;5.32;;
27558;SDS011;15002;52.028;5.670;2023-03-01T07:53:25;12.93;;;4.80;;
27558;SDS011;15002;52.028;5.670;2023-03-01T07:56:04;10.05;;;4.75;;
27558;SDS011;15002;52.028;5.670;2023-03-01T07:58:35;7.07;;;4.55;;
27558;SDS011;15002;52.028;5.670;2023-03-01T08:01:02;9.80;;;5.63;;
27558;SDS011;15002;52.028;5.670;2023-03-01T08:03:29;6.45;;;4.75;;
27558;SDS011;15002;52.028;5.670;2023-03-01T08:05:54;7.82;;;5.32;;
27558;SDS011;15002;52.028;5.670;2023-03-01T08:08:20;11.30;;;5.13;;
27558;SDS011;15002;52.028;5.670;2023-03-01T08:10:46;7.43;;;5.15;;
27558;SDS011;15002;52.028;5.670;2023-03-01T08:13:11;14.07;;;6.68;;
27558;SDS011;15002;52.028;5.670;2023-03-01T08:15:37;7.38;;;4.80;;
27558;SDS011;15002;52.028;5.670;2023-03-01T08:18:03;11.40;;;5.05;;
27558;SDS011;15002;52.028;5.670;2023-03-01T08:20:28;8.13;;;5.28;;
27558;SDS011;15002;52.028;5.670;2023-03-01T08:22:54;11.18;;;5.40;;
27558;SDS011;15002;52.028;5.670;2023-03-01T08:25:20;7.65;;;5.38;;
27558;SDS011;15002;52.028;5.670;2023-03-01T08:27:45;12.20;;;5.35;;
27558;SDS011;15002;52.028;5.670;2023-03-01T08:30:11;10.00;;;5.82;;
27558;SDS011;15002;52.028;5.670;2023-03-01T08:32:38;7.97;;;5.25;;
27558;SDS011;15002;52.028;5.670;2023-03-01T08:35:04;10.35;;;5.93;;
27558;SDS011;15002;52.028;5.670;2023-03-01T08:37:30;9.27;;;5.30;;
27558;SDS011;15002;52.028;5.670;2023-03-01T08:39:58;10.00;;;4.93;;
27558;SDS011;15002;52.028;5.670;2023-03-01T08:42:25;8.82;;;5.38;;
27558;SDS011;15002;52.028;5.670;2023-03-01T08:44:51;9.23;;;5.68;;
27558;SDS011;15002;52.028;5.670;2023-03-01T08:47:16;7.53;;;5.40;;
27558;SDS011;15002;52.028;5.670;2023-03-01T08:49:42;9.93;;;5.82;;
27558;SDS011;15002;52.028;5.670;2023-03-01T08:52:08;8.68;;;5.43;;
27558;SDS011;15002;52.028;5.670;2023-03-01T08:54:33;6.97;;;4.15;;
27558;SDS011;15002;52.028;5.670;2023-03-01T08:57:01;8.07;;;5.45;;
27558;SDS011;15002;52.028;5.670;2023-03-01T08:59:27;16.08;;;5.57;;
27558;SDS011;15002;52.028;5.670;2023-03-01T09:01:54;10.88;;;6.07;;
27558;SDS011;15002;52.028;5.670;2023-03-01T09:04:20;10.80;;;5.85;;
27558;SDS011;15002;52.028;5.670;2023-03-01T09:06:46;7.97;;;5.53;;
27558;SDS011;15002;52.028;5.670;2023-03-01T09:09:16;8.70;;;5.47;;
27558;SDS011;15002;52.028;5.670;2023-03-01T09:11:43;8.60;;;4.65;;
27558;SDS011;15002;52.028;5.670;2023-03-01T09:14:11;8.52;;;5.25;;
27558;SDS011;15002;52.028;5.670;2023-03-01T09:16:37;8.95;;;4.70;;
27558;SDS011;15002;52.028;5.670;2023-03-01T09:19:04;8.60;;;4.90;;
27558;SDS011;15002;52.028;5.670;2023-03-01T09:21:30;8.43;;;4.63;;
27558;SDS011;15002;52.028;5.670;2023-03-01T09:23:57;8.13;;;5.10;;
27558;SDS011;15002;52.028;5.670;2023-03-01T09:26:23;7.63;;;5.35;;
27558;SDS011;15002;52.028;5.670;2023-03-01T09:28:50;8.23;;;5.32;;
27558;SDS011;15002;52.028;5.670;2023-03-01T09:31:19;8.70;;;5.35;;
27558;SDS011;15002;52.028;5.670;2023-03-01T09:33:47;7.20;;;5.18;;
27558;SDS011;15002;52.028;5.670;2023-03-01T09:36:14;7.53;;;4.45;;
27558;SDS011;15002;52.028;5.670;2023-03-01T09:38:42;7.95;;;4.00;;
27558;SDS011;15002;52.028;5.670;2023-03-01T09:41:52;6.90;;;4.15;;
27558;SDS011;15002;52.028;5.670;2023-03-01T09:47:12;6.30;;;3.90;;
27558;SDS011;15002;52.028;5.670;2023-03-01T09:49:46;5.80;;;3.50;;
27558;SDS011;15002;52.028;5.670;2023-03-01T09:52:36;5.93;;;3.40;;
27558;SDS011;15002;52.028;5.670;2023-03-01T09:55:13;7.10;;;3.78;;
27558;SDS011;15002;52.028;5.670;2023-03-01T10:00:39;4.67;;;2.73;;
27558;SDS011;15002;52.028;5.670;2023-03-01T10:06:06;11.80;;;3.70;;
27558;SDS011;15002;52.028;5.670;2023-03-01T10:08:48;4.82;;;3.42;;
27558;SDS011;15002;52.028;5.670;2023-03-01T10:11:26;6.15;;;3.42;;
27558;SDS011;15002;52.028;5.670;2023-03-01T10:14:21;7.63;;;3.78;;
27558;SDS011;15002;52.028;5.670;2023-03-01T10:19:49;7.22;;;3.45;;
27558;SDS011;15002;52.028;5.670;2023-03-01T10:22:26;6.20;;;3.30;;
27558;SDS011;15002;52.028;5.670;2023-03-01T10:24:53;7.78;;;3.58;;
27558;SDS011;15002;52.028;5.670;2023-03-01T10:32:24;6.60;;;3.65;;
27558;SDS011;15002;52.028;5.670;2023-03-01T10:34:50;6.55;;;3.60;;
27558;SDS011;15002;52.028;5.670;2023-03-01T10:37:17;5.35;;;3.42;;
27558;SDS011;15002;52.028;5.670;2023-03-01T10:42:33;6.15;;;3.35;;
27558;SDS011;15002;52.028;5.670;2023-03-01T10:45:37;6.32;;;3.78;;
27558;SDS011;15002;52.028;5.670;2023-03-01T10:50:38;8.25;;;3.65;;
27558;SDS011;15002;52.028;5.670;2023-03-01T10:58:35;7.00;;;4.13;;
27558;SDS011;15002;52.028;5.670;2023-03-01T11:01:04;5.55;;;3.95;;
27558;SDS011;15002;52.028;5.670;2023-03-01T11:03:37;8.85;;;4.07;;
27558;SDS011;15002;52.028;5.670;2023-03-01T11:08:45;10.85;;;4.80;;
27558;SDS011;15002;52.028;5.670;2023-03-01T11:13:50;5.63;;;3.90;;
27558;SDS011;15002;52.028;5.670;2023-03-01T11:16:35;6.90;;;3.88;;
27558;SDS011;15002;52.028;5.670;2023-03-01T11:21:35;7.68;;;3.80;;
27558;SDS011;15002;52.028;5.670;2023-03-01T11:24:05;6.30;;;3.50;;
27558;SDS011;15002;52.028;5.670;2023-03-01T11:26:38;9.13;;;3.95;;
27558;SDS011;15002;52.028;5.670;2023-03-01T11:29:12;6.97;;;3.75;;
27558;SDS011;15002;52.028;5.670;2023-03-01T11:31:46;8.88;;;3.83;;
27558;SDS011;15002;52.028;5.670;2023-03-01T11:34:17;10.88;;;4.03;;
27558;SDS011;15002;52.028;5.670;2023-03-01T11:36:55;5.35;;;3.50;;
27558;SDS011;15002;52.028;5.670;2023-03-01T11:39:32;6.82;;;3.55;;
27558;SDS011;15002;52.028;5.670;2023-03-01T11:42:12;4.15;;;3.10;;
27558;SDS011;15002;52.028;5.670;2023-03-01T11:44:44;5.60;;;3.67;;
27558;SDS011;15002;52.028;5.670;2023-03-01T11:47:38;7.90;;;3.60;;
27558;SDS011;15002;52.028;5.670;2023-03-01T11:50:35;4.72;;;3.35;;
27558;SDS011;15002;52.028;5.670;2023-03-01T11:55:40;6.05;;;3.83;;
27558;SDS011;15002;52.028;5.670;2023-03-01T12:17:32;3.45;;;2.38;;
27558;SDS011;15002;52.028;5.670;2023-03-01T12:23:02;5.07;;;3.20;;
27558;SDS011;15002;52.028;5.670;2023-03-01T12:31:16;6.82;;;3.67;;
27558;SDS011;15002;52.028;5.670;2023-03-01T12:33:57;5.32;;;3.53;;
27558;SDS011;15002;52.028;5.670;2023-03-01T12:45:06;4.22;;;3.33;;
27558;SDS011;15002;52.028;5.670;2023-03-01T12:50:36;10.02;;;4.07;;
27558;SDS011;15002;52.028;5.670;2023-03-01T12:56:16;6.05;;;3.88;;
27558;SDS011;15002;52.028;5.670;2023-03-01T13:07:12;7.55;;;4.10;;
27558;SDS011;15002;52.028;5.670;2023-03-01T13:20:21;7.40;;;4.10;;
27558;SDS011;15002;52.028;5.670;2023-03-01T13:23:09;5.93;;;3.55;;
27558;SDS011;15002;52.028;5.670;2023-03-01T13:26:19;6.20;;;4.53;;
27558;SDS011;15002;52.028;5.670;2023-03-01T13:44:12;7.50;;;3.90;;
27558;SDS011;15002;52.028;5.670;2023-03-01T13:49:40;7.00;;;4.25;;
27558;SDS011;15002;52.028;5.670;2023-03-01T13:52:32;6.10;;;4.50;;
27558;SDS011;15002;52.028;5.670;2023-03-01T13:57:40;7.00;;;4.38;;
27558;SDS011;15002;52.028;5.670;2023-03-01T14:00:32;6.47;;;3.80;;
27558;SDS011;15002;52.028;5.670;2023-03-01T14:05:33;8.23;;;4.22;;
27558;SDS011;15002;52.028;5.670;2023-03-01T14:08:01;8.90;;;3.80;;
27558;SDS011;15002;52.028;5.670;2023-03-01T14:10:43;5.35;;;3.70;;
27558;SDS011;15002;52.028;5.670;2023-03-01T14:19:34;9.23;;;3.90;;
27558;SDS011;15002;52.028;5.670;2023-03-01T14:24:51;5.15;;;3.47;;
27558;SDS011;15002;52.028;5.670;2023-03-01T14:27:21;8.35;;;3.97;;
27558;SDS011;15002;52.028;5.670;2023-03-01T14:29:55;12.10;;;4.10;;
27558;SDS011;15002;52.028;5.670;2023-03-01T14:32:24;7.07;;;3.92;;
27558;SDS011;15002;52.028;5.670;2023-03-01T14:34:54;7.22;;;3.75;;
27558;SDS011;15002;52.028;5.670;2023-03-01T14:37:25;5.32;;;3.38;;
27558;SDS011;15002;52.028;5.670;2023-03-01T14:39:52;5.35;;;3.13;;
27558;SDS011;15002;52.028;5.670;2023-03-01T14:42:22;10.88;;;4.28;;
27558;SDS011;15002;52.028;5.670;2023-03-01T14:44:52;6.57;;;3.78;;
27558;SDS011;15002;52.028;5.670;2023-03-01T14:47:41;9.20;;;3.50;;
27558;SDS011;15002;52.028;5.670;2023-03-01T14:50:48;4.80;;;3.00;;
27558;SDS011;15002;52.028;5.670;2023-03-01T14:52:59;10.77;;;3.70;;
27558;SDS011;15002;52.028;5.670;2023-03-01T14:57:57;6.25;;;3.00;;
27558;SDS011;15002;52.028;5.670;2023-03-01T15:00:24;7.03;;;3.78;;
27558;SDS011;15002;52.028;5.670;2023-03-01T15:02:55;4.55;;;3.30;;
27558;SDS011;15002;52.028;5.670;2023-03-01T15:05:28;7.82;;;4.25;;
27558;SDS011;15002;52.028;5.670;2023-03-01T15:07:56;6.88;;;3.50;;
27558;SDS011;15002;52.028;5.670;2023-03-01T15:10:25;7.78;;;3.70;;
27558;SDS011;15002;52.028;5.670;2023-03-01T15:12:52;5.20;;;3.25;;
27558;SDS011;15002;52.028;5.670;2023-03-01T15:15:19;6.10;;;3.80;;
27558;SDS011;15002;52.028;5.670;2023-03-01T15:17:50;4.80;;;3.10;;
27558;SDS011;15002;52.028;5.670;2023-03-01T15:20:23;5.40;;;3.10;;
27558;SDS011;15002;52.028;5.670;2023-03-01T15:22:53;6.18;;;3.70;;
27558;SDS011;15002;52.028;5.670;2023-03-01T15:25:21;8.23;;;3.25;;
27558;SDS011;15002;52.028;5.670;2023-03-01T15:27:53;5.32;;;3.30;;
27558;SDS011;15002;52.028;5.670;2023-03-01T15:30:22;5.13;;;3.10;;
27558;SDS011;15002;52.028;5.670;2023-03-01T15:35:49;4.97;;;3.10;;
27558;SDS011;15002;52.028;5.670;2023-03-01T15:41:26;5.25;;;3.20;;
27558;SDS011;15002;52.028;5.670;2023-03-01T15:43:55;13.95;;;3.42;;
27558;SDS011;15002;52.028;5.670;2023-03-01T15:46:29;7.28;;;3.50;;
27558;SDS011;15002;52.028;5.670;2023-03-01T15:49:18;3.85;;;2.72;;
27558;SDS011;15002;52.028;5.670;2023-03-01T15:51:50;5.63;;;3.15;;
27558;SDS011;15002;52.028;5.670;2023-03-01T15:54:19;5.32;;;3.22;;
27558;SDS011;15002;52.028;5.670;2023-03-01T15:56:47;4.93;;;3.03;;
27558;SDS011;15002;52.028;5.670;2023-03-01T15:59:12;4.72;;;2.95;;
27558;SDS011;15002;52.028;5.670;2023-03-01T16:01:42;6.18;;;3.08;;
27558;SDS011;15002;52.028;5.670;2023-03-01T16:04:12;5.45;;;3.40;;
27558;SDS011;15002;52.028;5.670;2023-03-01T16:06:54;4.70;;;3.20;;
27558;SDS011;15002;52.028;5.670;2023-03-01T16:09:22;5.18;;;3.08;;
27558;SDS011;15002;52.028;5.670;2023-03-01T16:11:49;6.40;;;3.38;;
27558;SDS011;15002;52.028;5.670;2023-03-01T16:14:15;4.82;;;2.85;;
27558;SDS011;15002;52.028;5.670;2023-03-01T16:16:41;4.93;;;3.15;;
27558;SDS011;15002;52.028;5.670;2023-03-01T16:19:08;6.13;;;2.72;;
27558;SDS011;15002;52.028;5.670;2023-03-01T16:21:33;4.65;;;2.90;;
27558;SDS011;15002;52.028;5.670;2023-03-01T16:24:00;5.97;;;2.65;;
27558;SDS011;15002;52.028;5.670;2023-03-01T16:26:25;5.55;;;2.78;;
27558;SDS011;15002;52.028;5.670;2023-03-01T16:28:54;7.65;;;2.97;;
27558;SDS011;15002;52.028;5.670;2023-03-01T16:31:21;5.57;;;3.08;;
27558;SDS011;15002;52.028;5.670;2023-03-01T16:33:48;6.45;;;3.20;;
27558;SDS011;15002;52.028;5.670;2023-03-01T16:36:18;5.32;;;2.95;;
27558;SDS011;15002;52.028;5.670;2023-03-01T16:38:45;5.18;;;3.20;;
27558;SDS011;15002;52.028;5.670;2023-03-01T16:41:12;5.30;;;3.25;;
27558;SDS011;15002;52.028;5.670;2023-03-01T16:43:40;5.50;;;3.20;;
27558;SDS011;15002;52.028;5.670;2023-03-01T16:46:14;5.25;;;3.28;;
27558;SDS011;15002;52.028;5.670;2023-03-01T16:48:42;5.60;;;3.42;;
27558;SDS011;15002;52.028;5.670;2023-03-01T16:51:08;4.15;;;3.00;;
27558;SDS011;15002;52.028;5.670;2023-03-01T16:53:34;6.47;;;3.65;;
27558;SDS011;15002;52.028;5.670;2023-03-01T16:56:01;6.18;;;3.38;;
27558;SDS011;15002;52.028;5.670;2023-03-01T16:58:28;7.43;;;3.83;;
27558;SDS011;15002;52.028;5.670;2023-03-01T17:00:53;6.90;;;3.97;;
27558;SDS011;15002;52.028;5.670;2023-03-01T17:03:21;8.00;;;3.90;;
27558;SDS011;15002;52.028;5.670;2023-03-01T17:05:48;5.97;;;3.25;;
27558;SDS011;15002;52.028;5.670;2023-03-01T17:08:13;6.35;;;4.00;;
27558;SDS011;15002;52.028;5.670;2023-03-01T17:10:39;9.00;;;3.83;;
27558;SDS011;15002;52.028;5.670;2023-03-01T17:13:07;6.25;;;3.13;;
27558;SDS011;15002;52.028;5.670;2023-03-01T17:15:34;7.72;;;3.80;;
27558;SDS011;15002;52.028;5.670;2023-03-01T17:18:00;6.90;;;3.75;;
27558;SDS011;15002;52.028;5.670;2023-03-01T17:20:26;11.80;;;4.40;;
27558;SDS011;15002;52.028;5.670;2023-03-01T17:22:52;5.85;;;3.88;;
27558;SDS011;15002;52.028;5.670;2023-03-01T17:25:18;7.32;;;4.10;;
27558;SDS011;15002;52.028;5.670;2023-03-01T17:27:44;7.35;;;4.10;;
27558;SDS011;15002;52.028;5.670;2023-03-01T17:30:10;8.00;;;3.70;;
27558;SDS011;15002;52.028;5.670;2023-03-01T17:32:37;7.93;;;4.13;;
27558;SDS011;15002;52.028;5.670;2023-03-01T17:35:03;6.38;;;4.05;;
27558;SDS011;15002;52.028;5.670;2023-03-01T17:37:30;7.95;;;4.00;;